Time;durP1;ratioP1;P1;durP2;ratioP2;P2;SDS_P1;SDS_P2;PMS_P1;PMS_P2;Temp;Humidity;BMP_temperature;BMP_pressure;BME280_temperature;BME280_humidity;BME280_pressure;Samples;Min_cycle;Max_cycle;Signal;HPM_P1;HPM_P2
2021/05/01 00:04:01;;;;;;;4.53;2.92;;;17.70;60.20;;;;;;10500897;28;20111;-61
2021/05/01 00:09:03;;;;;;;4.22;2.40;;;17.70;60.20;;;;;;10500310;28;20460;-61
2021/05/01 00:14:05;;;;;;;2.67;1.90;;;17.70;60.20;;;;;;10482326;28;20024;-60
2021/05/01 00:19:06;;;;;;;3.28;2.00;;;17.70;60.20;;;;;;10500122;28;20047;-60
2021/05/01 00:24:08;;;;;;;5.15;2.72;;;17.60;60.20;;;;;;10500080;28;20035;-60
2021/05/01 00:29:09;;;;;;;3.78;2.17;;;17.70;60.10;;;;;;10499868;28;20111;-60
2021/05/01 00:34:09;;;;;;;2.95;1.98;;;17.70;60.10;;;;;;10481696;28;20467;-60
2021/05/01 00:39:10;;;;;;;2.78;1.90;;;17.70;60.00;;;;;;10481619;28;20128;-60
2021/05/01 00:44:11;;;;;;;4.80;2.13;;;17.70;59.90;;;;;;10481239;28;20126;-61
2021/05/01 00:49:12;;;;;;;3.22;2.10;;;17.80;59.90;;;;;;10499080;28;20033;-61
2021/05/01 00:54:13;;;;;;;2.30;1.65;;;17.70;59.80;;;;;;10498713;28;20024;-61
2021/05/01 00:59:16;;;;;;;3.35;1.80;;;17.80;59.90;;;;;;10498380;28;20032;-61
2021/05/01 01:04:18;;;;;;;2.33;1.55;;;17.70;59.70;;;;;;10498747;28;20381;-61
2021/05/01 01:09:18;;;;;;;4.53;2.10;;;17.80;59.80;;;;;;10468058;28;20070;-61
2021/05/01 01:14:19;;;;;;;3.45;1.85;;;17.70;59.80;;;;;;10482401;28;20145;-61
2021/05/01 01:19:20;;;;;;;2.50;2.13;;;17.70;59.80;;;;;;10497994;28;20028;-60
2021/05/01 01:24:20;;;;;;;3.78;2.00;;;17.70;59.70;;;;;;10497682;28;20035;-61
2021/05/01 01:29:21;;;;;;;3.40;1.90;;;17.70;59.70;;;;;;10497744;28;20036;-61
2021/05/01 01:34:22;;;;;;;2.13;1.73;;;17.70;59.70;;;;;;10497514;28;20164;-60
2021/05/01 01:39:23;;;;;;;3.17;1.83;;;17.60;59.60;;;;;;10479692;28;20085;-60
2021/05/01 01:44:23;;;;;;;3.35;2.00;;;17.60;59.70;;;;;;10497290;28;20044;-61
2021/05/01 01:49:24;;;;;;;2.72;1.85;;;17.70;59.80;;;;;;10497080;28;20158;-61
2021/05/01 01:54:25;;;;;;;3.40;1.85;;;17.60;59.60;;;;;;10497100;28;20455;-61
2021/05/01 01:59:29;;;;;;;3.20;1.55;;;17.70;59.60;;;;;;10496970;28;20115;-61
2021/05/01 02:04:30;;;;;;;2.58;1.60;;;17.70;59.60;;;;;;10496910;28;20560;-60
2021/05/01 02:09:31;;;;;;;3.22;1.83;;;17.70;59.60;;;;;;10497236;28;20043;-60
2021/05/01 02:14:32;;;;;;;3.08;1.88;;;17.70;59.50;;;;;;10505212;28;20023;-61
2021/05/01 02:19:32;;;;;;;2.53;1.70;;;17.60;59.50;;;;;;10487238;28;20032;-61
2021/05/01 02:24:33;;;;;;;2.83;1.65;;;17.60;59.50;;;;;;10505110;28;20090;-61
2021/05/01 02:29:34;;;;;;;2.17;1.50;;;17.60;59.50;;;;;;10504476;28;20032;-61
2021/05/01 02:34:34;;;;;;;2.97;1.88;;;17.70;59.50;;;;;;10504400;28;20028;-61
2021/05/01 02:39:36;;;;;;;2.55;1.35;;;17.70;59.40;;;;;;10504421;28;20365;-61
2021/05/01 02:44:36;;;;;;;2.70;1.60;;;17.70;59.40;;;;;;10504038;28;20570;-61
2021/05/01 02:49:37;;;;;;;1.90;1.35;;;17.70;59.30;;;;;;10485986;28;20024;-61
2021/05/01 02:54:38;;;;;;;2.25;1.40;;;17.70;59.20;;;;;;10503410;28;20451;-61
2021/05/01 02:59:39;;;;;;;3.05;1.30;;;17.70;59.20;;;;;;10485582;28;20101;-61
2021/05/01 03:04:39;;;;;;;2.22;1.52;;;17.70;59.20;;;;;;10503217;28;20048;-60
2021/05/01 03:09:40;;;;;;;2.13;1.60;;;17.70;59.20;;;;;;10502719;28;20032;-61
2021/05/01 03:14:41;;;;;;;2.60;1.67;;;17.70;59.30;;;;;;10503210;28;20021;-61
2021/05/01 03:19:42;;;;;;;2.17;1.73;;;17.70;59.20;;;;;;10502584;28;20059;-61
2021/05/01 03:24:43;;;;;;;2.85;1.90;;;17.60;59.10;;;;;;10502168;28;20362;-61
2021/05/01 03:29:43;;;;;;;2.92;1.88;;;17.60;59.10;;;;;;10502138;28;20039;-61
2021/05/01 03:34:44;;;;;;;3.10;1.65;;;17.70;59.10;;;;;;10502129;28;20095;-60
2021/05/01 03:39:45;;;;;;;2.00;1.50;;;17.60;59.00;;;;;;10501962;28;20039;-61
2021/05/01 03:44:46;;;;;;;2.35;1.40;;;17.70;59.00;;;;;;10501631;28;20044;-61
2021/05/01 03:49:46;;;;;;;2.70;1.50;;;17.70;58.90;;;;;;10501445;28;20056;-61
2021/05/01 03:54:47;;;;;;;1.95;1.00;;;17.70;58.90;;;;;;10483445;28;20046;-61
2021/05/01 03:59:49;;;;;;;1.90;1.42;;;17.70;58.90;;;;;;10500159;28;20132;-60
2021/05/01 04:04:50;;;;;;;2.58;1.10;;;17.70;59.00;;;;;;10496217;28;20059;-60
2021/05/01 04:09:51;;;;;;;2.13;1.50;;;17.60;58.90;;;;;;10462679;28;20790;-61
2021/05/01 04:14:51;;;;;;;2.92;1.58;;;17.60;58.80;;;;;;10493839;28;20120;-60
2021/05/01 04:19:52;;;;;;;1.67;1.45;;;17.70;58.80;;;;;;10493630;28;20040;-61
2021/05/01 04:24:53;;;;;;;2.45;1.60;;;17.70;58.70;;;;;;10481912;28;20040;-61
2021/05/01 04:29:54;;;;;;;1.90;1.35;;;17.70;58.70;;;;;;10492944;28;20489;-61
2021/05/01 04:34:54;;;;;;;2.60;1.23;;;17.70;58.60;;;;;;10490992;28;20024;-60
2021/05/01 04:39:55;;;;;;;1.45;1.10;;;17.70;58.60;;;;;;10492674;28;20856;-60
2021/05/01 04:44:56;;;;;;;2.10;1.35;;;17.70;58.60;;;;;;10492434;28;20044;-61
2021/05/01 04:49:56;;;;;;;2.25;1.40;;;17.70;58.60;;;;;;10492043;28;20119;-61
2021/05/01 04:55:01;;;;;;;1.85;1.33;;;17.70;58.70;;;;;;10492234;28;20445;-61
2021/05/01 05:00:04;;;;;;;2.30;1.20;;;17.70;58.60;;;;;;10469636;28;20033;-60
2021/05/01 05:05:07;;;;;;;1.92;1.30;;;17.70;58.60;;;;;;10490132;28;20499;-60
2021/05/01 05:10:12;;;;;;;2.60;1.90;;;17.70;58.70;;;;;;10491450;28;20034;-62
2021/05/01 05:15:12;;;;;;;4.78;1.75;;;17.70;59.30;;;;;;10490966;28;20440;-61
2021/05/01 05:20:13;;;;;;;2.35;1.65;;;17.70;59.10;;;;;;10490936;28;20040;-63
2021/05/01 05:25:14;;;;;;;5.47;1.85;;;17.70;59.20;;;;;;10490936;28;20444;-49
2021/05/01 05:30:15;;;;;;;4.15;2.13;;;17.70;59.50;;;;;;10490078;28;20033;-63
2021/05/01 05:35:16;;;;;;;8.10;2.08;;;17.70;60.50;;;;;;10490519;28;20033;-61
2021/05/01 05:40:17;;;;;;;9.35;2.45;;;17.70;60.80;;;;;;10471993;28;20035;-62
2021/05/01 05:45:24;;;;;;;6.93;2.40;;;17.70;61.00;;;;;;10488720;28;20056;-61
2021/05/01 05:50:25;;;;;;;10.73;3.45;;;17.70;61.20;;;;;;10490369;28;20032;-63
2021/05/01 05:55:26;;;;;;;10.23;2.58;;;17.70;61.20;;;;;;10491785;28;20032;-65
2021/05/01 06:00:27;;;;;;;6.75;2.42;;;17.70;60.90;;;;;;10490470;28;20508;-64
2021/05/01 06:05:43;;;;;;;7.80;2.58;;;17.70;60.90;;;;;;10488747;28;20031;-64
2021/05/01 06:10:44;;;;;;;6.10;2.40;;;17.60;60.90;;;;;;10471764;28;20040;-64
2021/05/01 06:15:47;;;;;;;8.32;2.83;;;17.70;61.00;;;;;;10490156;28;20029;-64
2021/05/01 06:20:47;;;;;;;24.77;4.75;;;17.60;61.40;;;;;;10471824;28;20024;-60
2021/05/01 06:25:48;;;;;;;23.23;5.28;;;17.60;61.70;;;;;;10471535;28;20388;-62
2021/05/01 06:30:50;;;;;;;20.95;4.15;;;17.60;62.20;;;;;;10471600;28;20055;-62
2021/05/01 06:35:51;;;;;;;22.10;3.88;;;17.60;62.40;;;;;;10471393;28;20422;-58
2021/05/01 06:40:56;;;;;;;14.57;4.05;;;17.60;62.50;;;;;;10471407;28;20029;-61
2021/05/01 06:45:59;;;;;;;25.30;4.50;;;17.60;62.30;;;;;;10471758;28;20067;-61
2021/05/01 06:51:02;;;;;;;22.65;5.10;;;17.60;61.70;;;;;;10489113;28;20032;-59
2021/05/01 06:56:04;;;;;;;19.30;4.10;;;17.50;61.90;;;;;;10472422;28;20036;-60
2021/05/01 07:01:09;;;;;;;20.67;5.22;;;17.50;61.60;;;;;;10496446;28;20040;-59
2021/05/01 07:06:11;;;;;;;31.30;7.13;;;17.50;63.00;;;;;;10495402;28;20036;-59
2021/05/01 07:11:13;;;;;;;18.52;4.45;;;17.50;63.40;;;;;;10469956;28;20037;-60
2021/05/01 07:16:14;;;;;;;30.02;6.63;;;17.50;63.40;;;;;;10477834;28;20782;-60
2021/05/01 07:21:17;;;;;;;34.75;7.15;;;17.50;63.70;;;;;;10473516;28;20040;-62
2021/05/01 07:26:22;;;;;;;24.95;6.57;;;17.50;63.70;;;;;;10495017;28;20078;-60
2021/05/01 07:31:29;;;;;;;30.88;6.72;;;17.50;63.50;;;;;;10490823;28;20032;-60
2021/05/01 07:36:41;;;;;;;25.63;5.05;;;17.50;63.80;;;;;;10469965;28;20555;-62
2021/05/01 07:41:55;;;;;;;31.48;6.85;;;17.50;64.20;;;;;;10471567;28;20047;-62
2021/05/01 07:47:02;;;;;;;20.90;5.63;;;17.50;63.80;;;;;;10494603;28;20102;-62
2021/05/01 07:52:03;;;;;;;19.00;5.43;;;17.50;63.50;;;;;;10494993;28;20429;-61
2021/05/01 07:57:04;;;;;;;29.10;6.30;;;17.40;63.50;;;;;;10494697;28;20115;-61
2021/05/01 08:02:05;;;;;;;16.40;4.28;;;17.40;63.30;;;;;;10490426;28;20060;-62
2021/05/01 08:07:06;;;;;;;13.02;4.80;;;17.40;63.20;;;;;;10493082;28;20483;-61
2021/05/01 08:12:07;;;;;;;17.25;4.25;;;17.40;63.20;;;;;;10493774;28;20031;-62
2021/05/01 08:17:08;;;;;;;21.73;4.97;;;17.40;63.00;;;;;;10469414;28;20039;-61
2021/05/01 08:22:09;;;;;;;20.17;4.38;;;17.40;63.20;;;;;;10492769;28;20111;-60
2021/05/01 08:27:09;;;;;;;27.33;5.03;;;17.40;63.10;;;;;;10492346;28;20396;-61
2021/05/01 08:32:10;;;;;;;26.23;5.50;;;17.40;63.40;;;;;;10492498;28;20370;-62
2021/05/01 08:37:11;;;;;;;33.33;6.60;;;17.40;63.70;;;;;;10491895;28;20362;-61
2021/05/01 08:42:12;;;;;;;23.40;6.25;;;17.40;63.90;;;;;;10469397;28;20072;-61
2021/05/01 08:47:13;;;;;;;19.40;5.63;;;17.50;63.70;;;;;;10491072;28;20036;-62
2021/05/01 08:52:14;;;;;;;22.20;6.20;;;17.50;63.70;;;;;;10473845;28;20029;-61
2021/05/01 08:57:32;;;;;;;21.90;5.43;;;17.60;63.70;;;;;;10491227;28;20031;-61
2021/05/01 09:02:32;;;;;;;20.50;5.93;;;17.70;64.20;;;;;;10491839;28;20382;-59
2021/05/01 09:07:37;;;;;;;20.85;5.82;;;17.70;64.20;;;;;;10472651;28;20045;-59
2021/05/01 09:12:46;;;;;;;21.33;5.57;;;17.80;64.30;;;;;;10472913;28;20086;-61
2021/05/01 09:17:48;;;;;;;18.10;5.43;;;17.80;64.40;;;;;;10491263;28;20032;-59
2021/05/01 09:23:07;;;;;;;24.73;5.80;;;17.80;65.60;;;;;;10490079;28;20123;-58
2021/05/01 09:28:13;;;;;;;22.92;5.63;;;17.80;65.80;;;;;;10473162;28;20103;-58
2021/05/01 09:33:30;;;;;;;15.93;5.32;;;17.90;65.50;;;;;;10490716;28;20062;-59
2021/05/01 09:38:37;;;;;;;18.48;4.65;;;17.90;65.00;;;;;;10490377;28;20040;-57
2021/05/01 09:44:08;;;;;;;14.13;4.97;;;17.90;64.80;;;;;;10490695;28;20032;-58
2021/05/01 09:49:09;;;;;;;19.40;4.35;;;17.90;64.60;;;;;;10490932;28;20490;-58
2021/05/01 09:54:11;;;;;;;10.55;3.95;;;17.90;64.60;;;;;;10490260;28;20047;-58
2021/05/01 09:59:13;;;;;;;16.42;5.43;;;17.90;64.60;;;;;;10490055;28;20078;-58
2021/05/01 10:04:19;;;;;;;9.90;4.40;;;17.90;64.50;;;;;;10476384;28;20059;-59
2021/05/01 10:09:41;;;;;;;12.73;4.28;;;17.90;64.00;;;;;;10496665;28;20042;-62
2021/05/01 10:14:51;;;;;;;19.83;5.10;;;17.90;63.50;;;;;;10496175;28;20028;-60
2021/05/01 10:20:03;;;;;;;17.23;5.70;;;17.80;62.70;;;;;;10496038;28;20040;-62
2021/05/01 10:25:22;;;;;;;18.88;5.10;;;17.80;63.00;;;;;;10496158;28;20050;-63
2021/05/01 10:30:48;;;;;;;20.20;5.50;;;17.80;63.20;;;;;;10495815;28;20036;-63
2021/05/01 10:36:21;;;;;;;25.02;5.20;;;17.80;63.80;;;;;;10487111;28;20036;-64
2021/05/01 10:41:23;;;;;;;19.40;4.10;;;17.70;63.50;;;;;;10504167;28;20035;-63
2021/05/01 10:46:33;;;;;;;16.27;4.63;;;17.70;63.70;;;;;;10504040;28;20067;-61
2021/05/01 10:51:50;;;;;;;23.30;5.32;;;17.80;63.90;;;;;;10504093;28;20036;-60
2021/05/01 10:56:54;;;;;;;19.50;5.18;;;17.80;64.10;;;;;;10503887;28;20029;-61
2021/05/01 11:01:57;;;;;;;16.50;4.63;;;17.80;64.40;;;;;;10484945;28;20035;-63
2021/05/01 11:07:17;;;;;;;26.77;4.90;;;17.80;64.10;;;;;;10502354;28;20036;-59
2021/05/01 11:12:21;;;;;;;24.25;5.10;;;17.80;64.20;;;;;;10485457;28;20043;-62
2021/05/01 11:17:31;;;;;;;22.65;5.50;;;17.80;64.10;;;;;;10498316;28;20033;-62
2021/05/01 11:22:38;;;;;;;25.40;6.28;;;17.80;64.20;;;;;;10502589;28;20067;-62
2021/05/01 11:27:48;;;;;;;22.90;4.72;;;17.80;64.40;;;;;;10501748;28;20024;-63
2021/05/01 11:32:49;;;;;;;23.52;4.55;;;17.60;63.30;;;;;;10500500;28;20033;-61
2021/05/01 11:37:58;;;;;;;15.70;4.68;;;17.60;63.00;;;;;;10498745;28;20036;-62
2021/05/01 11:43:01;;;;;;;15.07;5.25;;;17.60;63.10;;;;;;10480840;28;20419;-62
2021/05/01 11:48:07;;;;;;;13.15;4.07;;;17.60;63.00;;;;;;10498376;28;20044;-61
2021/05/01 11:53:16;;;;;;;15.48;4.43;;;17.50;62.90;;;;;;10498811;28;20548;-62
2021/05/01 11:58:35;;;;;;;13.60;3.60;;;17.60;62.90;;;;;;10500987;28;20036;-62
2021/05/01 12:03:38;;;;;;;8.43;3.35;;;17.50;63.30;;;;;;10500652;28;20035;-62
2021/05/01 12:08:39;;;;;;;15.55;5.40;;;17.50;63.20;;;;;;10478864;28;20115;-62
2021/05/01 12:13:46;;;;;;;13.38;4.85;;;17.50;63.20;;;;;;10500459;28;20381;-62
2021/05/01 12:18:49;;;;;;;13.07;4.03;;;17.50;63.10;;;;;;10499514;28;20492;-61
2021/05/01 12:23:55;;;;;;;10.45;3.13;;;17.50;64.00;;;;;;10480964;28;20024;-62
2021/05/01 12:28:56;;;;;;;9.48;3.33;;;17.50;63.00;;;;;;10499524;28;20158;-62
2021/05/01 12:33:57;;;;;;;8.05;3.33;;;17.50;62.90;;;;;;10481865;28;20150;-62
2021/05/01 12:38:59;;;;;;;13.30;4.30;;;17.50;63.00;;;;;;10499546;28;20040;-62
2021/05/01 12:43:59;;;;;;;10.40;3.92;;;17.50;63.20;;;;;;10499275;28;20040;-62
2021/05/01 12:49:03;;;;;;;11.18;3.25;;;17.40;62.80;;;;;;10497560;28;20504;-62
2021/05/01 12:54:22;;;;;;;11.93;3.58;;;17.40;62.70;;;;;;10498014;28;20028;-62
2021/05/01 12:59:36;;;;;;;7.68;2.65;;;17.40;62.60;;;;;;10498657;28;20350;-63
2021/05/01 13:04:38;;;;;;;7.90;3.08;;;17.40;62.40;;;;;;10480939;28;20017;-63
2021/05/01 13:09:47;;;;;;;12.27;4.18;;;17.40;62.20;;;;;;10498130;28;20028;-63
2021/05/01 13:14:48;;;;;;;12.73;3.27;;;17.40;61.80;;;;;;10480491;28;20032;-63
2021/05/01 13:20:12;;;;;;;10.40;3.20;;;17.30;61.90;;;;;;10496992;28;20029;-63
2021/05/01 13:25:22;;;;;;;9.10;4.07;;;17.30;61.80;;;;;;10494456;28;20540;-63
2021/05/01 13:30:27;;;;;;;9.68;3.05;;;17.30;61.80;;;;;;10493705;28;20035;-62
2021/05/01 13:35:30;;;;;;;9.18;3.70;;;17.30;62.10;;;;;;10494871;28;20024;-63
2021/05/01 13:40:37;;;;;;;8.88;3.53;;;17.30;61.80;;;;;;10495187;28;20037;-63
2021/05/01 13:45:46;;;;;;;8.40;3.40;;;17.30;61.90;;;;;;10496928;28;20041;-63
2021/05/01 13:50:51;;;;;;;5.93;2.85;;;17.30;61.70;;;;;;10496866;28;20496;-63
2021/05/01 13:55:53;;;;;;;9.27;2.97;;;17.40;61.60;;;;;;10497103;28;20029;-62
2021/05/01 14:00:56;;;;;;;6.00;2.45;;;17.40;61.60;;;;;;10496566;28;20036;-62
2021/05/01 14:06:02;;;;;;;4.93;3.08;;;17.40;61.40;;;;;;10496010;28;20048;-62
2021/05/01 14:11:05;;;;;;;6.00;2.67;;;17.40;61.60;;;;;;10496453;28;20377;-63
2021/05/01 14:16:16;;;;;;;5.85;3.15;;;17.40;61.40;;;;;;10496734;28;20028;-63
2021/05/01 14:21:16;;;;;;;7.68;3.15;;;17.40;61.50;;;;;;10496306;28;20036;-62
2021/05/01 14:26:17;;;;;;;6.47;3.25;;;17.40;61.30;;;;;;10496260;28;20115;-63
2021/05/01 14:31:21;;;;;;;5.25;2.53;;;17.40;61.30;;;;;;10478524;28;20036;-63
2021/05/01 14:36:23;;;;;;;7.47;3.03;;;17.40;61.20;;;;;;10475975;28;20550;-63
2021/05/01 14:41:26;;;;;;;6.13;2.40;;;17.40;61.20;;;;;;10496022;28;20060;-63
2021/05/01 14:46:28;;;;;;;3.63;2.08;;;17.40;61.30;;;;;;10495933;28;20054;-63
2021/05/01 14:51:29;;;;;;;5.95;2.22;;;17.40;61.20;;;;;;10477677;28;20614;-62
2021/05/01 14:56:30;;;;;;;4.60;2.22;;;17.40;61.20;;;;;;10495584;28;20384;-63
2021/05/01 15:01:31;;;;;;;4.47;2.28;;;17.40;61.10;;;;;;10495462;28;20027;-62
2021/05/01 15:06:31;;;;;;;4.03;2.00;;;17.40;61.00;;;;;;10477553;28;20025;-63
2021/05/01 15:11:32;;;;;;;3.88;2.50;;;17.50;61.00;;;;;;10496034;28;20020;-62
2021/05/01 15:16:57;;;;;;;4.22;2.35;;;17.40;60.90;;;;;;10496152;28;20036;-63
2021/05/01 15:22:00;;;;;;;3.20;2.50;;;17.40;61.00;;;;;;10502692;28;20410;-63
2021/05/01 15:27:05;;;;;;;5.05;2.33;;;17.50;61.00;;;;;;10501671;28;20514;-62
2021/05/01 15:32:06;;;;;;;7.25;2.50;;;17.40;60.90;;;;;;10502965;28;20027;-63
2021/05/01 15:37:07;;;;;;;8.25;2.75;;;17.50;61.00;;;;;;10501647;28;20036;-64
2021/05/01 15:42:08;;;;;;;11.55;2.78;;;17.50;61.20;;;;;;10500361;28;20068;-64
2021/05/01 15:47:11;;;;;;;4.75;2.60;;;17.50;61.90;;;;;;10483429;28;20042;-63
2021/05/01 15:52:12;;;;;;;10.52;3.40;;;17.50;62.20;;;;;;10499861;28;20159;-65
2021/05/01 15:57:13;;;;;;;7.35;3.22;;;17.50;61.60;;;;;;10500626;28;20111;-64
2021/05/01 16:02:13;;;;;;;3.30;2.05;;;17.50;61.40;;;;;;10500289;28;20031;-64
2021/05/01 16:07:15;;;;;;;14.07;2.78;;;17.50;61.20;;;;;;10497239;28;20116;-63
2021/05/01 16:12:16;;;;;;;9.38;3.33;;;17.50;60.10;;;;;;10466618;28;20040;-59
2021/05/01 16:17:16;;;;;;;11.65;4.63;;;17.50;60.00;;;;;;10468155;28;20312;-58
2021/05/01 16:22:17;;;;;;;11.23;3.40;;;17.60;65.00;;;;;;10489334;28;20463;-60
2021/05/01 16:27:19;;;;;;;10.25;2.78;;;17.60;63.20;;;;;;10498751;28;20039;-56
2021/05/01 16:32:21;;;;;;;14.68;3.53;;;17.70;64.40;;;;;;10498504;28;20063;-58
2021/05/01 16:37:22;;;;;;;11.38;2.80;;;17.70;63.60;;;;;;10499981;28;20025;-59
2021/05/01 16:42:23;;;;;;;15.82;3.67;;;17.70;62.70;;;;;;10499444;28;20037;-58
2021/05/01 16:47:24;;;;;;;7.20;2.70;;;17.60;62.60;;;;;;10499163;28;20246;-58
2021/05/01 16:52:24;;;;;;;17.75;4.68;;;17.60;62.90;;;;;;10481149;28;20412;-56
2021/05/01 16:57:26;;;;;;;14.55;3.40;;;17.60;62.90;;;;;;10498164;28;20028;-57
2021/05/01 17:02:26;;;;;;;7.90;3.03;;;17.60;63.10;;;;;;10497781;28;20369;-62
2021/05/01 17:07:27;;;;;;;7.60;2.85;;;17.70;62.80;;;;;;10480270;28;20112;-59
2021/05/01 17:12:28;;;;;;;20.85;3.65;;;17.60;62.70;;;;;;10480264;28;20414;-58
2021/05/01 17:17:28;;;;;;;10.50;3.03;;;17.60;62.70;;;;;;10496475;28;20028;-59
2021/05/01 17:22:29;;;;;;;6.22;2.45;;;17.60;62.90;;;;;;10496150;28;20029;-61
2021/05/01 17:27:30;;;;;;;6.22;2.50;;;17.60;62.90;;;;;;10497027;28;20116;-59
2021/05/01 17:32:30;;;;;;;10.77;2.85;;;17.60;63.50;;;;;;10496649;28;20116;-60
2021/05/01 17:37:31;;;;;;;6.00;2.80;;;17.60;63.10;;;;;;10497297;28;20032;-60
2021/05/01 17:42:32;;;;;;;12.57;2.50;;;17.60;63.20;;;;;;10497148;28;20094;-60
2021/05/01 17:47:33;;;;;;;5.60;2.20;;;17.60;62.70;;;;;;10496532;28;20044;-61
2021/05/01 17:52:34;;;;;;;8.98;2.50;;;17.60;62.50;;;;;;10496512;28;20052;-61
2021/05/01 17:57:39;;;;;;;7.15;2.17;;;17.60;62.40;;;;;;10496448;28;20053;-59
2021/05/01 18:02:41;;;;;;;5.47;2.58;;;17.60;62.20;;;;;;10477718;28;20038;-58
2021/05/01 18:07:43;;;;;;;6.93;2.38;;;17.50;62.20;;;;;;10496359;28;20025;-60
2021/05/01 18:12:45;;;;;;;4.97;2.05;;;17.60;61.70;;;;;;10495775;28;20012;-59
2021/05/01 18:17:46;;;;;;;9.40;3.05;;;17.50;61.70;;;;;;10496388;28;20036;-60
2021/05/01 18:22:47;;;;;;;5.80;2.58;;;17.50;61.30;;;;;;10478298;28;20036;-60
2021/05/01 18:27:47;;;;;;;8.93;2.80;;;17.50;61.10;;;;;;10495936;28;20388;-60
2021/05/01 18:32:52;;;;;;;9.68;3.13;;;17.40;60.90;;;;;;10494815;28;20020;-59
2021/05/01 18:37:54;;;;;;;7.00;3.10;;;17.40;61.40;;;;;;10495024;28;20020;-59
2021/05/01 18:42:55;;;;;;;5.72;2.78;;;17.50;61.40;;;;;;10458023;28;20120;-59
2021/05/01 18:47:56;;;;;;;7.22;2.55;;;17.40;61.50;;;;;;10464111;28;20147;-56
2021/05/01 18:52:57;;;;;;;5.40;2.70;;;17.40;61.50;;;;;;10467881;28;20039;-56
2021/05/01 18:57:58;;;;;;;5.88;3.20;;;17.50;61.80;;;;;;10470433;28;20499;-58
2021/05/01 19:03:00;;;;;;;12.13;3.60;;;17.40;62.60;;;;;;10489760;28;20350;-58
2021/05/01 19:08:01;;;;;;;4.45;2.53;;;17.50;62.10;;;;;;10463770;28;20021;-61
2021/05/01 19:13:07;;;;;;;10.32;2.58;;;17.50;62.10;;;;;;10480738;28;20102;-58
2021/05/01 19:18:12;;;;;;;5.18;2.55;;;17.50;61.80;;;;;;10502407;28;20028;-60
2021/05/01 19:23:17;;;;;;;11.52;3.15;;;17.50;61.80;;;;;;10480011;28;20036;-60
2021/05/01 19:28:20;;;;;;;7.05;2.17;;;17.40;62.40;;;;;;10469248;28;20449;-60
2021/05/01 19:33:21;;;;;;;6.05;2.15;;;17.40;62.60;;;;;;10499369;28;20473;-60
2021/05/01 19:38:22;;;;;;;7.03;2.72;;;17.40;62.70;;;;;;10500988;28;20032;-61
2021/05/01 19:43:24;;;;;;;7.18;2.47;;;17.40;62.60;;;;;;10498575;28;20036;-60
2021/05/01 19:48:29;;;;;;;5.78;2.67;;;17.40;62.30;;;;;;10483071;28;20120;-61
2021/05/01 19:53:30;;;;;;;5.80;2.70;;;17.50;62.00;;;;;;10479395;28;20059;-61
2021/05/01 19:58:31;;;;;;;9.20;2.85;;;17.40;61.80;;;;;;10500557;28;20482;-60
2021/05/01 20:03:32;;;;;;;7.45;2.30;;;17.50;61.70;;;;;;10499874;28;20025;-61
2021/05/01 20:08:35;;;;;;;5.80;2.55;;;17.40;61.60;;;;;;10501330;28;20024;-61
2021/05/01 20:13:36;;;;;;;7.05;2.38;;;17.40;61.40;;;;;;10500899;28;20111;-61
2021/05/01 20:18:37;;;;;;;5.32;2.65;;;17.50;61.40;;;;;;10500918;28;20117;-61
2021/05/01 20:23:38;;;;;;;4.10;2.20;;;17.50;61.20;;;;;;10482911;28;20029;-60
2021/05/01 20:28:39;;;;;;;4.32;1.70;;;17.50;61.00;;;;;;10500000;28;20473;-61
2021/05/01 20:33:40;;;;;;;5.93;2.22;;;17.60;60.90;;;;;;10500366;28;20032;-60
2021/05/01 20:38:41;;;;;;;2.83;2.38;;;17.60;60.80;;;;;;10481984;28;20097;-62
2021/05/01 20:43:42;;;;;;;4.95;2.17;;;17.60;60.70;;;;;;10481674;28;20422;-61
2021/05/01 20:48:46;;;;;;;3.72;1.75;;;17.60;60.60;;;;;;10481341;28;20512;-61
2021/05/01 20:53:47;;;;;;;3.80;2.03;;;17.60;60.50;;;;;;10499247;28;20024;-60
2021/05/01 20:58:48;;;;;;;5.00;2.50;;;17.60;60.40;;;;;;10498997;28;20025;-61
2021/05/01 21:03:49;;;;;;;4.45;1.98;;;17.60;60.40;;;;;;10499116;28;20081;-58
2021/05/01 21:08:49;;;;;;;3.25;1.92;;;17.60;60.30;;;;;;10498439;28;20124;-61
2021/05/01 21:13:50;;;;;;;3.75;1.98;;;17.60;60.30;;;;;;10498531;28;20421;-60
2021/05/01 21:18:51;;;;;;;4.57;1.95;;;17.50;60.20;;;;;;10480130;28;20119;-61
2021/05/01 21:23:54;;;;;;;2.95;1.88;;;17.60;60.10;;;;;;10498091;28;20028;-62
2021/05/01 21:28:54;;;;;;;2.92;2.10;;;17.60;60.10;;;;;;10497950;28;20171;-61
2021/05/01 21:33:55;;;;;;;2.60;1.77;;;17.60;60.00;;;;;;10497670;28;20021;-61
2021/05/01 21:38:56;;;;;;;3.70;1.70;;;17.60;60.00;;;;;;10492817;28;20163;-56
2021/05/01 21:43:56;;;;;;;3.53;1.95;;;17.60;60.00;;;;;;10477616;28;20037;-60
2021/05/01 21:48:57;;;;;;;5.60;2.10;;;17.60;59.90;;;;;;10477894;28;20040;-61
2021/05/01 21:53:58;;;;;;;3.20;1.75;;;17.60;59.80;;;;;;10493406;28;20024;-59
2021/05/01 21:58:59;;;;;;;2.92;1.80;;;17.60;59.70;;;;;;10494251;28;20040;-61
2021/05/01 22:04:01;;;;;;;2.33;1.63;;;17.60;59.60;;;;;;10479092;28;20029;-61
2021/05/01 22:09:02;;;;;;;2.95;1.70;;;17.60;59.50;;;;;;10497313;28;20477;-60
2021/05/01 22:14:03;;;;;;;2.75;1.80;;;17.60;59.60;;;;;;10496861;28;20469;-60
2021/05/01 22:24:13;;;;;;;3.42;1.98;;;17.70;59.50;;;;;;10496664;28;20036;-60
2021/05/01 22:29:17;;;;;;;2.25;1.83;;;17.60;59.30;;;;;;10501598;28;20067;-60
2021/05/01 22:34:17;;;;;;;2.85;1.88;;;17.60;59.30;;;;;;10498336;28;20353;-60
2021/05/01 22:39:18;;;;;;;3.13;2.10;;;17.70;59.30;;;;;;10503078;28;20039;-61
2021/05/01 22:44:19;;;;;;;2.42;1.98;;;17.60;59.20;;;;;;10497512;28;20033;-60
2021/05/01 22:49:20;;;;;;;2.42;1.60;;;17.60;59.10;;;;;;10497261;28;20036;-60
2021/05/01 22:54:20;;;;;;;2.35;1.65;;;17.60;59.10;;;;;;10497148;28;20459;-60
2021/05/01 22:59:21;;;;;;;3.92;1.70;;;17.70;59.10;;;;;;10497113;28;20032;-60
2021/05/01 23:04:22;;;;;;;3.15;1.73;;;17.60;59.00;;;;;;10478934;28;20029;-60
2021/05/01 23:09:23;;;;;;;3.53;2.10;;;17.60;59.00;;;;;;10467192;28;20037;-60
2021/05/01 23:14:24;;;;;;;2.90;2.00;;;17.60;59.00;;;;;;10496430;28;20033;-60
2021/05/01 23:19:25;;;;;;;2.97;1.38;;;17.60;58.90;;;;;;10478361;28;20170;-59
2021/05/01 23:24:29;;;;;;;3.13;2.13;;;17.60;58.90;;;;;;10496244;28;20036;-60
2021/05/01 23:29:31;;;;;;;2.40;1.70;;;17.60;58.90;;;;;;10469331;28;20045;-60
2021/05/01 23:34:31;;;;;;;2.63;2.00;;;17.60;58.80;;;;;;10495814;28;20497;-59
2021/05/01 23:39:33;;;;;;;3.90;1.80;;;17.60;58.60;;;;;;10477711;28;20048;-55
2021/05/01 23:44:35;;;;;;;3.80;1.83;;;17.70;58.70;;;;;;10496813;28;20043;-50
2021/05/01 23:49:36;;;;;;;2.65;1.90;;;17.60;58.60;;;;;;10495541;28;20075;-54
2021/05/01 23:54:41;;;;;;;2.30;1.45;;;17.60;58.60;;;;;;10495304;28;20028;-53
2021/05/01 23:59:42;;;;;;;2.65;1.67;;;17.70;58.50;;;;;;10495003;28;20036;-54
